Etusivu
METAR-TAF:

METAR-TAF

Lentoasemat :

Roskilde, Tanska

Leveyspiiri: 55-35N, Pituuspiiri: 012-08E, korkeus merenpinnasta: 44 m

Tämänhetkinen sää

Tämä raportti tehtiin 26 minuuttia sitten, kello 17.20 UTC
Tuuli 1 kn idästä/koillisesta
Lämpötila 2°C
Kosteus 93%
Ilmanpaine 1023 hPa
Näkyvyys 10 km tai enemmän

METAR: EKRK 271720Z AUTO 07001KT 9999 NCD 02/01 Q1023

Aika: 18:46 (17:46 UTC)

Sääennuste

Tämä raportti tehtiin 18 minuuttia sitten, kello 17.28 UTC
Ennuste voimassa 27. päivästä klo 18 UTC - 28. päivään klo 03 UTC
Tuuli 3 kn koillisesta
Näkyvyys 10 km tai enemmän
Muutamia pilviä 3000 ft:n korkeudessa
Tulossa
27. päivästä klo 18 UTC - 27. päivään klo 20 UTC
Näkyvyys: 0100 m
100 ft:n korkeudessa
jäätävää sumua
Ajoittain
27. päivästä klo 20 UTC - 28. päivään klo 03 UTC
Näkyvyys: 2000 m
Hajanaisia pilviä 200 ft:n korkeudessa
sumuhattaroita

TAF: EKRK 271728Z 2718/2803 05003KT 9999 FEW030 BECMG 2718/2720 0100 FZFG VV001 TEMPO 2720/2803 2000 BCFG SCT002

Säähavainnot ja -ennusteet yli 4000 lentoasemalta (METAR- ja TAF-raportit).

Käytössä olevat sääasemat on merkitty karttaan keltaisilla ja punaisilla pisteillä.

Aseta hiiri pisteen päälle nähdäksesi sääaseman nimen.

Klikkaa sitten nähdäksesi säähavainnot ja -ennusteet.

Kartan vaihtaminen: klikkaa mustalla rastilla varustettuja vihreitä pisteitä, niin voit zoomata sisään; viivalla varustettua vihreää pistettä, niin voit zoomata ulos tai vihreitä nuolia, niin pääset viereisille kartoille.


METAR-TAF: